Time;durP1;ratioP1;P1;durP2;ratioP2;P2;SDS_P1;SDS_P2;PMS_P1;PMS_P2;Temp;Humidity;BMP_temperature;BMP_pressure;BME280_temperature;BME280_humidity;BME280_pressure;Samples;Min_cycle;Max_cycle;Signal;HPM_P1;HPM_P2
2023/09/12 00:00:54;;;;;;;20.90;19.37;;;22.10;1.00;;;;;;4994044;28;20471;-79
2023/09/12 00:03:24;;;;;;;20.73;19.43;;;22.10;1.00;;;;;;5026292;28;20475;-78
2023/09/12 00:05:53;;;;;;;20.00;18.50;;;22.10;1.00;;;;;;5027286;28;20465;-80
2023/09/12 00:08:22;;;;;;;20.57;19.10;;;22.10;1.00;;;;;;5026716;28;20468;-79
2023/09/12 00:11:00;;;;;;;22.33;20.63;;;22.10;1.00;;;;;;5028784;28;20460;-78
2023/09/12 00:13:28;;;;;;;20.67;19.23;;;22.00;1.00;;;;;;5030430;28;20567;-78
2023/09/12 00:15:57;;;;;;;21.17;19.50;;;22.00;1.00;;;;;;5028250;28;20475;-79
2023/09/12 00:18:26;;;;;;;21.70;20.30;;;22.00;1.00;;;;;;5025584;28;20541;-78
2023/09/12 00:20:55;;;;;;;21.23;20.00;;;22.00;1.00;;;;;;5019903;28;20459;-79
2023/09/12 00:23:23;;;;;;;20.50;19.40;;;22.00;1.00;;;;;;5029861;28;21138;-78
2023/09/12 00:25:52;;;;;;;21.07;19.70;;;21.90;1.00;;;;;;5026397;28;20456;-77
2023/09/12 00:28:21;;;;;;;21.53;20.13;;;21.90;1.00;;;;;;5025452;28;20483;-79
2023/09/12 00:30:49;;;;;;;21.37;19.67;;;21.90;1.00;;;;;;5028722;28;20453;-82
2023/09/12 00:33:17;;;;;;;21.27;20.13;;;21.90;1.00;;;;;;5026233;28;20733;-80
2023/09/12 00:35:47;;;;;;;21.37;20.27;;;21.90;1.00;;;;;;5027821;28;20488;-77
2023/09/12 00:38:15;;;;;;;20.00;18.83;;;21.80;1.00;;;;;;5030742;28;20513;-77
2023/09/12 00:40:43;;;;;;;20.77;19.43;;;21.80;1.00;;;;;;5029539;28;20457;-79
2023/09/12 00:43:12;;;;;;;21.93;20.33;;;21.70;1.00;;;;;;5027796;28;20467;-78
2023/09/12 00:45:40;;;;;;;21.23;19.83;;;21.70;1.00;;;;;;5029258;28;20453;-79
2023/09/12 00:48:09;;;;;;;21.77;20.17;;;21.70;1.00;;;;;;5030131;28;21288;-82
2023/09/12 00:50:38;;;;;;;20.07;18.87;;;21.60;1.00;;;;;;5011522;28;20469;-81
2023/09/12 00:53:08;;;;;;;21.60;20.30;;;21.60;1.00;;;;;;5028114;28;20957;-81
2023/09/12 00:55:41;;;;;;;21.30;20.00;;;21.70;1.00;;;;;;5030356;28;20471;-78
2023/09/12 00:58:09;;;;;;;21.40;19.77;;;21.60;1.00;;;;;;5030386;28;20588;-78
2023/09/12 01:00:37;;;;;;;21.00;19.40;;;21.60;1.00;;;;;;5027248;28;21029;-80
2023/09/12 01:03:06;;;;;;;20.30;19.10;;;21.60;1.00;;;;;;5029357;28;20472;-80
2023/09/12 01:05:34;;;;;;;20.77;19.47;;;21.50;1.00;;;;;;5021152;28;20449;-77
2023/09/12 01:08:03;;;;;;;20.33;19.10;;;21.50;1.00;;;;;;5029447;28;20484;-78
2023/09/12 01:10:33;;;;;;;19.33;18.23;;;21.50;1.00;;;;;;5029609;28;20463;-79
2023/09/12 01:13:01;;;;;;;20.23;18.93;;;21.40;1.00;;;;;;5026647;28;20872;-79
2023/09/12 01:15:29;;;;;;;20.63;19.27;;;21.40;1.00;;;;;;4996358;28;21077;-81
2023/09/12 01:17:58;;;;;;;21.47;20.10;;;21.40;1.00;;;;;;5029495;28;21823;-80
2023/09/12 01:20:30;;;;;;;20.70;19.60;;;21.40;1.00;;;;;;5028666;28;20463;-78
2023/09/12 01:23:15;;;;;;;21.20;20.00;;;21.40;1.00;;;;;;5030573;28;20463;-79
2023/09/12 01:26:26;;;;;;;20.67;19.43;;;21.40;1.00;;;;;;5029014;28;20457;-81
2023/09/12 01:28:58;;;;;;;20.60;19.30;;;21.40;1.00;;;;;;5029042;28;20472;-81
2023/09/12 01:31:27;;;;;;;22.33;20.37;;;21.30;1.00;;;;;;5024233;28;20456;-77
2023/09/12 01:33:57;;;;;;;21.70;20.37;;;21.30;18.50;;;;;;4935092;28;20473;-77
2023/09/12 01:36:25;;;;;;;20.70;19.40;;;21.40;23.70;;;;;;4966965;28;20456;-80
2023/09/12 01:38:54;;;;;;;21.00;19.70;;;21.40;29.00;;;;;;5021611;28;20472;-78
2023/09/12 01:41:22;;;;;;;21.23;19.53;;;21.40;3.90;;;;;;5024094;28;20464;-79
2023/09/12 01:43:52;;;;;;;20.70;19.40;;;21.40;28.60;;;;;;5030046;28;20448;-79
2023/09/12 01:46:23;;;;;;;21.77;20.30;;;21.40;30.80;;;;;;5026531;28;20459;-79
2023/09/12 01:48:54;;;;;;;21.07;19.53;;;21.30;27.80;;;;;;5024532;28;21087;-81
2023/09/12 01:51:25;;;;;;;20.80;19.60;;;21.30;44.30;;;;;;5024175;28;20591;-82
2023/09/12 01:53:54;;;;;;;21.77;20.35;;;21.30;92.10;;;;;;5027531;28;20454;-77
2023/09/12 01:56:22;;;;;;;21.87;20.37;;;21.30;60.80;;;;;;5027570;28;20202;-80
2023/09/12 01:58:51;;;;;;;21.80;20.50;;;21.30;50.20;;;;;;5028233;28;20488;-79
2023/09/12 02:01:19;;;;;;;21.23;19.67;;;21.30;23.60;;;;;;5028631;28;20536;-80
2023/09/12 02:03:48;;;;;;;20.30;19.00;;;21.20;29.10;;;;;;5020519;28;20481;-80
2023/09/12 02:06:16;;;;;;;21.10;19.70;;;21.20;29.60;;;;;;5025242;28;20460;-78
2023/09/12 02:08:44;;;;;;;20.03;18.80;;;21.20;40.40;;;;;;5031454;28;20468;-78
2023/09/12 02:11:13;;;;;;;20.43;19.23;;;21.20;80.00;;;;;;5027798;28;21424;-78
2023/09/12 02:13:41;;;;;;;19.73;18.70;;;21.20;76.80;;;;;;5027825;28;20823;-82
2023/09/12 02:16:09;;;;;;;20.47;18.93;;;21.10;43.40;;;;;;5027507;28;20866;-80
2023/09/12 02:18:37;;;;;;;20.47;19.40;;;21.10;48.00;;;;;;5029485;28;20586;-82
2023/09/12 02:21:06;;;;;;;19.70;18.60;;;21.10;62.70;;;;;;5029821;28;20515;-78
2023/09/12 02:23:34;;;;;;;21.57;20.10;;;21.10;85.60;;;;;;5029966;28;20947;-81
2023/09/12 02:26:03;;;;;;;20.60;19.40;;;21.10;53.50;;;;;;5031820;28;20556;-80
2023/09/12 02:28:31;;;;;;;21.60;20.20;;;21.00;83.20;;;;;;5032687;28;20460;-77
2023/09/12 02:30:59;;;;;;;20.37;19.20;;;21.00;97.60;;;;;;5032350;28;20463;-81
2023/09/12 02:33:27;;;;;;;22.33;20.70;;;21.00;99.90;;;;;;4979608;28;20448;-80
2023/09/12 02:35:55;;;;;;;20.23;19.00;;;21.00;99.90;;;;;;5030397;28;20525;-81
2023/09/12 02:38:25;;;;;;;20.40;19.10;;;21.00;99.90;;;;;;5032923;28;20472;-78
2023/09/12 02:40:53;;;;;;;20.03;18.80;;;21.00;99.90;;;;;;5031259;28;20465;-80
2023/09/12 02:43:21;;;;;;;20.87;19.13;;;21.00;99.90;;;;;;5030842;28;20493;-82
2023/09/12 02:45:49;;;;;;;21.87;20.10;;;21.00;99.90;;;;;;5028543;28;20495;-80
2023/09/12 02:48:17;;;;;;;20.90;19.50;;;20.90;99.90;;;;;;5037064;28;20481;-82
2023/09/12 02:50:46;;;;;;;20.77;19.57;;;21.00;99.90;;;;;;5031703;28;20815;-81
2023/09/12 02:53:14;;;;;;;20.77;19.37;;;20.90;93.20;;;;;;5030474;28;20457;-78
2023/09/12 02:55:44;;;;;;;20.77;19.40;;;20.80;99.90;;;;;;5027865;28;20468;-79
2023/09/12 02:58:12;;;;;;;21.33;19.93;;;20.90;99.90;;;;;;5033167;28;21032;-78
2023/09/12 03:00:40;;;;;;;23.17;20.60;;;20.90;99.90;;;;;;5030852;28;20968;-79
2023/09/12 03:03:09;;;;;;;20.73;19.43;;;20.80;99.90;;;;;;5029354;28;20455;-80
2023/09/12 03:05:38;;;;;;;20.73;19.43;;;20.80;99.90;;;;;;5026839;28;20474;-80
2023/09/12 03:08:06;;;;;;;22.10;20.57;;;20.80;99.90;;;;;;5030120;28;20481;-80
2023/09/12 03:10:34;;;;;;;22.20;20.80;;;20.70;99.90;;;;;;5031903;28;20453;-82
2023/09/12 03:13:04;;;;;;;22.10;20.63;;;20.70;99.90;;;;;;5014077;28;20461;-79
2023/09/12 03:15:37;;;;;;;21.13;20.03;;;20.70;99.90;;;;;;5013218;28;20476;-80
2023/09/12 03:18:08;;;;;;;21.33;20.13;;;20.80;99.90;;;;;;5029264;28;20543;-78
2023/09/12 03:20:39;;;;;;;21.30;19.90;;;20.80;99.90;;;;;;5030706;28;20451;-80
2023/09/12 03:23:07;;;;;;;22.80;20.93;;;20.70;99.90;;;;;;5033459;28;20463;-79
2023/09/12 03:25:37;;;;;;;22.07;20.90;;;20.70;99.90;;;;;;5027046;28;20448;-81
2023/09/12 03:28:07;;;;;;;22.60;20.83;;;20.70;99.90;;;;;;5029662;28;20466;-79
2023/09/12 03:30:37;;;;;;;21.80;20.37;;;20.70;99.90;;;;;;5029931;28;20434;-77
2023/09/12 03:33:06;;;;;;;20.97;19.67;;;20.80;99.90;;;;;;5032820;28;20540;-77
2023/09/12 03:35:34;;;;;;;21.77;20.13;;;20.80;99.90;;;;;;5027910;28;20737;-80
2023/09/12 03:38:02;;;;;;;21.03;19.77;;;20.80;99.90;;;;;;5031641;28;21020;-79
2023/09/12 03:40:31;;;;;;;22.83;21.43;;;20.90;99.90;;;;;;5032757;28;20456;-80
2023/09/12 03:42:59;;;;;;;21.27;20.07;;;20.90;88.10;;;;;;5029174;28;20531;-78
2023/09/12 03:45:29;;;;;;;20.33;19.23;;;21.00;66.10;;;;;;5030123;28;21069;-79
2023/09/12 03:47:57;;;;;;;20.37;19.20;;;21.10;1.00;;;;;;5029016;28;20535;-79
2023/09/12 03:50:25;;;;;;;21.77;20.37;;;21.20;1.00;;;;;;5029496;28;20544;-79
2023/09/12 03:52:53;;;;;;;21.50;20.13;;;21.10;1.00;;;;;;5028237;28;20461;-81
2023/09/12 03:55:21;;;;;;;21.60;20.40;;;21.00;1.00;;;;;;5032770;28;20480;-81
2023/09/12 03:57:49;;;;;;;21.53;20.30;;;20.90;1.10;;;;;;5029923;28;20492;-79
2023/09/12 04:00:17;;;;;;;23.30;21.60;;;20.80;51.80;;;;;;5024675;28;20487;-81
2023/09/12 04:02:47;;;;;;;21.53;20.23;;;20.80;69.40;;;;;;5006990;28;20536;-80
2023/09/12 04:05:15;;;;;;;22.60;21.30;;;20.80;53.80;;;;;;5031738;28;20456;-78
2023/09/12 04:07:43;;;;;;;22.33;20.87;;;20.70;62.30;;;;;;5031004;28;20461;-78
2023/09/12 04:10:12;;;;;;;22.47;21.07;;;20.70;99.90;;;;;;5032122;28;20464;-79
2023/09/12 04:12:40;;;;;;;22.30;20.73;;;20.60;99.90;;;;;;5029706;28;20459;-81
2023/09/12 04:15:08;;;;;;;21.00;20.00;;;20.60;99.90;;;;;;5028655;28;20576;-78
2023/09/12 04:17:36;;;;;;;22.17;20.77;;;20.50;99.90;;;;;;5029237;28;21061;-79
2023/09/12 04:20:07;;;;;;;22.57;21.27;;;20.60;99.90;;;;;;5027199;28;21002;-79
2023/09/12 04:22:36;;;;;;;22.17;20.80;;;20.60;99.90;;;;;;5025097;28;20453;-81
2023/09/12 04:25:04;;;;;;;20.67;19.47;;;20.60;99.90;;;;;;5032712;28;20451;-80
2023/09/12 04:27:34;;;;;;;22.80;21.20;;;20.60;99.90;;;;;;5029489;28;20560;-78
2023/09/12 04:30:03;;;;;;;23.37;21.30;;;20.50;99.90;;;;;;5031634;28;20448;-79
2023/09/12 04:32:32;;;;;;;23.10;21.50;;;20.50;99.90;;;;;;5008523;28;20471;-81
2023/09/12 04:35:00;;;;;;;22.23;21.03;;;20.50;99.90;;;;;;5024229;28;20472;-81
2023/09/12 04:37:30;;;;;;;21.03;20.03;;;20.50;99.90;;;;;;5029576;28;21085;-77
2023/09/12 04:39:58;;;;;;;21.83;20.43;;;20.40;99.90;;;;;;5035349;28;20493;-78
2023/09/12 04:42:28;;;;;;;22.40;21.20;;;20.30;99.90;;;;;;5030916;28;20465;-77
2023/09/12 04:44:56;;;;;;;25.03;23.37;;;20.30;99.90;;;;;;5026179;28;20565;-79
2023/09/12 04:47:24;;;;;;;23.77;22.33;;;20.20;99.90;;;;;;5028928;28;20476;-77
2023/09/12 04:49:53;;;;;;;25.90;24.23;;;20.20;99.90;;;;;;5032628;28;20489;-78
2023/09/12 04:52:21;;;;;;;23.00;21.60;;;20.20;1.00;;;;;;5030013;28;20457;-81
2023/09/12 04:54:51;;;;;;;23.70;22.20;;;20.40;99.90;;;;;;5030707;28;20449;-82
2023/09/12 04:57:19;;;;;;;23.20;21.77;;;20.50;99.90;;;;;;5006360;28;20493;-80
2023/09/12 04:59:47;;;;;;;23.90;22.40;;;20.70;78.60;;;;;;5029197;28;20569;-79
2023/09/12 05:02:15;;;;;;;23.83;22.53;;;20.70;76.70;;;;;;5035088;28;20454;-80
2023/09/12 05:04:43;;;;;;;23.70;22.13;;;20.80;6.90;;;;;;5019946;28;20466;-80
2023/09/12 05:07:11;;;;;;;23.48;22.00;;;20.90;1.00;;;;;;5033958;28;20471;-81
2023/09/12 05:09:39;;;;;;;23.20;21.77;;;21.00;1.00;;;;;;5031325;28;20194;-80
2023/09/12 05:12:11;;;;;;;22.23;21.13;;;21.10;1.00;;;;;;5037985;28;20447;-83
2023/09/12 05:14:39;;;;;;;23.10;21.80;;;21.10;1.00;;;;;;5024599;28;20441;-79
2023/09/12 05:17:07;;;;;;;22.90;21.43;;;21.20;1.00;;;;;;5029479;28;20812;-81
2023/09/12 05:19:35;;;;;;;23.10;21.77;;;21.20;1.00;;;;;;5038798;28;20522;-80
2023/09/12 05:22:04;;;;;;;23.03;21.73;;;21.30;1.00;;;;;;5032700;28;20464;-79
2023/09/12 05:24:32;;;;;;;24.40;22.70;;;21.30;1.00;;;;;;5028084;28;20457;-78
2023/09/12 05:27:00;;;;;;;23.07;21.50;;;21.30;1.00;;;;;;5024223;28;20500;-78
2023/09/12 05:29:29;;;;;;;24.93;23.43;;;21.30;1.00;;;;;;5023867;28;20453;-81
2023/09/12 05:31:57;;;;;;;24.03;22.63;;;21.30;1.00;;;;;;5031377;28;20470;-78
2023/09/12 05:34:25;;;;;;;23.53;21.80;;;21.40;1.00;;;;;;5009878;28;20465;-78
2023/09/12 05:36:54;;;;;;;23.60;22.10;;;21.40;1.00;;;;;;5032434;28;20524;-79
2023/09/12 05:39:22;;;;;;;23.63;22.23;;;21.50;1.00;;;;;;5032501;28;20590;-79
2023/09/12 05:41:50;;;;;;;23.70;21.97;;;21.60;1.00;;;;;;5028910;28;20476;-79
2023/09/12 05:44:18;;;;;;;22.63;21.40;;;21.60;1.00;;;;;;5025788;28;20469;-78
2023/09/12 05:46:49;;;;;;;22.83;21.50;;;21.50;1.00;;;;;;5025405;28;20456;-77
2023/09/12 05:49:17;;;;;;;23.30;22.00;;;21.70;1.00;;;;;;5027673;28;20441;-80
2023/09/12 05:51:45;;;;;;;24.30;22.67;;;21.70;1.00;;;;;;5033655;28;20910;-81
2023/09/12 05:54:14;;;;;;;23.93;22.63;;;21.80;1.00;;;;;;5028101;28;20973;-80
2023/09/12 05:56:42;;;;;;;23.30;21.77;;;21.80;1.00;;;;;;5033932;28;20468;-80
2023/09/12 05:59:10;;;;;;;24.70;22.90;;;21.80;1.00;;;;;;5033935;28;21527;-81
2023/09/12 06:01:39;;;;;;;24.73;23.03;;;21.80;1.00;;;;;;5033583;28;20451;-81
2023/09/12 06:04:09;;;;;;;24.50;22.90;;;21.80;1.00;;;;;;5034757;28;20448;-78
2023/09/12 06:06:38;;;;;;;23.93;22.53;;;21.80;1.00;;;;;;5032394;28;20554;-80
2023/09/12 06:09:08;;;;;;;25.07;23.33;;;21.80;1.00;;;;;;5033113;28;20452;-80
2023/09/12 06:11:37;;;;;;;25.67;23.30;;;21.80;1.00;;;;;;5037614;28;20447;-80
2023/09/12 06:14:05;;;;;;;25.63;23.47;;;21.90;1.00;;;;;;5034598;28;20502;-81
2023/09/12 06:16:33;;;;;;;24.07;22.43;;;21.80;1.00;;;;;;5038181;28;20452;-82
2023/09/12 06:19:01;;;;;;;24.73;23.30;;;21.80;1.00;;;;;;5037166;28;20496;-78
2023/09/12 06:21:31;;;;;;;25.77;23.83;;;21.90;1.00;;;;;;5037095;28;20453;-80
2023/09/12 06:24:14;;;;;;;24.80;23.10;;;21.90;1.00;;;;;;5034298;28;20463;-80
2023/09/12 06:26:43;;;;;;;26.60;24.53;;;21.90;1.00;;;;;;5032500;28;20609;-81
2023/09/12 06:29:11;;;;;;;24.30;22.80;;;22.00;1.00;;;;;;5035925;28;20457;-80
2023/09/12 06:31:41;;;;;;;25.00;23.30;;;22.00;1.00;;;;;;5040134;28;20448;-80
2023/09/12 06:34:10;;;;;;;25.00;23.27;;;22.00;31.60;;;;;;5029052;28;20999;-80
2023/09/12 06:36:41;;;;;;;24.63;23.07;;;22.00;54.10;;;;;;5035706;28;21132;-80
2023/09/12 06:39:09;;;;;;;26.03;23.97;;;22.00;1.00;;;;;;5037442;28;20559;-81
2023/09/12 06:41:37;;;;;;;24.23;22.73;;;22.10;1.00;;;;;;5036207;28;20444;-82
2023/09/12 06:44:07;;;;;;;23.67;22.27;;;22.10;1.00;;;;;;5035001;28;20457;-82
2023/09/12 06:46:36;;;;;;;24.27;22.60;;;22.10;18.30;;;;;;5038823;28;20460;-81
2023/09/12 06:49:05;;;;;;;33.97;30.63;;;22.10;1.00;;;;;;4993958;28;22330;-84
2023/09/12 06:51:33;;;;;;;32.97;29.73;;;22.10;1.00;;;;;;5040433;28;20497;-79
2023/09/12 06:54:07;;;;;;;26.93;24.67;;;22.10;1.00;;;;;;4993595;28;20568;-81
2023/09/12 06:56:37;;;;;;;25.47;23.67;;;22.20;1.00;;;;;;5036167;28;20456;-80
2023/09/12 06:59:06;;;;;;;25.10;23.10;;;22.20;1.00;;;;;;5029236;28;20538;-82
2023/09/12 07:01:34;;;;;;;24.43;22.60;;;22.20;1.00;;;;;;5016076;28;20475;-81
2023/09/12 07:04:03;;;;;;;24.53;23.03;;;22.30;1.00;;;;;;5011636;28;20466;-79
2023/09/12 07:06:32;;;;;;;25.63;23.10;;;22.30;1.00;;;;;;5032504;28;20458;-81
2023/09/12 07:09:02;;;;;;;24.20;22.80;;;22.40;1.00;;;;;;5030253;28;20877;-81
2023/09/12 07:11:31;;;;;;;23.67;22.33;;;22.40;1.00;;;;;;5019820;28;20445;-79
2023/09/12 07:13:59;;;;;;;25.80;23.90;;;22.50;1.00;;;;;;5028095;28;20461;-83
2023/09/12 07:16:27;;;;;;;25.70;23.73;;;22.60;1.00;;;;;;5029182;28;20545;-81
2023/09/12 07:18:56;;;;;;;23.37;22.07;;;22.70;1.00;;;;;;5033210;28;20480;-81
2023/09/12 07:21:24;;;;;;;23.97;22.57;;;22.70;1.00;;;;;;5030691;28;20480;-81
2023/09/12 07:23:52;;;;;;;24.13;22.83;;;22.80;1.00;;;;;;5034787;28;20533;-79
2023/09/12 07:26:20;;;;;;;24.33;22.43;;;22.90;1.00;;;;;;5035622;28;21557;-81
2023/09/12 07:28:50;;;;;;;24.50;22.87;;;23.00;1.00;;;;;;5030570;28;20937;-82
2023/09/12 07:31:18;;;;;;;23.87;22.53;;;23.10;1.00;;;;;;5029002;28;20448;-83
2023/09/12 07:33:46;;;;;;;25.03;23.20;;;23.20;1.00;;;;;;5023987;28;20460;-79
2023/09/12 07:36:14;;;;;;;25.07;23.67;;;23.20;1.00;;;;;;5032498;28;20462;-80
2023/09/12 07:38:45;;;;;;;24.03;22.43;;;23.30;1.00;;;;;;5035400;28;20476;-80
2023/09/12 07:41:13;;;;;;;23.63;22.20;;;23.20;1.00;;;;;;5036464;28;20524;-81
2023/09/12 07:43:41;;;;;;;24.37;22.67;;;23.30;1.00;;;;;;5030805;28;20458;-80
2023/09/12 07:46:12;;;;;;;24.40;22.80;;;23.30;1.00;;;;;;5030846;28;20909;-81
2023/09/12 07:48:40;;;;;;;24.13;22.40;;;23.30;1.00;;;;;;5036816;28;20547;-80
2023/09/12 07:51:17;;;;;;;23.37;22.27;;;23.40;1.00;;;;;;5036044;28;20437;-80
2023/09/12 07:53:45;;;;;;;24.87;23.47;;;23.40;1.00;;;;;;5034296;28;20494;-81
2023/09/12 07:56:13;;;;;;;23.90;22.60;;;23.50;1.00;;;;;;5032608;28;20504;-81
2023/09/12 07:58:41;;;;;;;24.37;23.17;;;23.50;1.00;;;;;;5031902;28;20479;-79
2023/09/12 08:01:11;;;;;;;23.00;21.70;;;23.50;1.00;;;;;;5039034;28;20869;-80
2023/09/12 08:03:43;;;;;;;23.93;22.60;;;23.70;1.00;;;;;;5035400;28;20440;-80
2023/09/12 08:06:11;;;;;;;22.90;21.70;;;23.80;1.00;;;;;;5036277;28;21150;-80
2023/09/12 08:08:40;;;;;;;23.70;22.50;;;23.70;1.00;;;;;;5040536;28;20477;-80
2023/09/12 08:11:10;;;;;;;24.20;22.90;;;23.80;1.00;;;;;;5030482;28;21020;-80
2023/09/12 08:13:38;;;;;;;23.60;22.40;;;23.90;1.00;;;;;;5014541;28;20457;-80
2023/09/12 08:16:07;;;;;;;23.03;21.80;;;24.00;1.00;;;;;;5035108;28;20818;-80
2023/09/12 08:18:36;;;;;;;23.50;22.20;;;24.00;99.90;;;;;;5034419;28;20546;-82
2023/09/12 08:21:05;;;;;;;24.20;22.80;;;24.00;1.00;;;;;;5034495;28;20535;-78
2023/09/12 08:23:33;;;;;;;23.63;22.43;;;24.00;99.90;;;;;;5034968;28;20463;-80
2023/09/12 08:26:01;;;;;;;23.67;22.27;;;24.10;1.00;;;;;;5032154;28;20463;-80
2023/09/12 08:28:29;;;;;;;23.53;22.30;;;24.20;1.00;;;;;;5037751;28;20485;-82
2023/09/12 08:30:58;;;;;;;24.17;22.83;;;24.30;1.00;;;;;;5014850;28;21264;-86
2023/09/12 08:33:26;;;;;;;23.20;22.00;;;24.40;1.00;;;;;;5015514;28;20480;-83
2023/09/12 08:35:56;;;;;;;23.63;22.40;;;24.50;99.90;;;;;;5035601;28;20971;-83
2023/09/12 08:38:24;;;;;;;22.73;21.53;;;24.70;99.90;;;;;;5020123;28;20472;-83
2023/09/12 08:40:52;;;;;;;23.63;22.40;;;24.80;99.90;;;;;;5037656;28;21021;-85
2023/09/12 08:43:22;;;;;;;23.30;22.10;;;24.90;99.90;;;;;;5019045;28;20845;-84
2023/09/12 08:45:51;;;;;;;22.50;21.10;;;25.00;99.90;;;;;;5035134;28;20462;-84
2023/09/12 08:48:21;;;;;;;21.40;20.40;;;25.00;99.90;;;;;;5036035;28;20574;-83
2023/09/12 08:50:53;;;;;;;24.07;22.67;;;25.10;99.90;;;;;;5039915;28;20453;-82
2023/09/12 08:53:23;;;;;;;24.30;22.93;;;25.20;99.90;;;;;;5034701;28;20500;-84
2023/09/12 08:55:53;;;;;;;23.83;22.33;;;25.30;99.90;;;;;;5037081;28;21040;-83
2023/09/12 08:58:23;;;;;;;24.00;22.57;;;25.30;99.90;;;;;;5040877;28;20483;-85
2023/09/12 09:00:51;;;;;;;23.38;22.08;;;25.40;99.90;;;;;;5032709;28;20536;-86
2023/09/12 09:03:21;;;;;;;23.53;22.37;;;25.50;99.90;;;;;;5033381;28;20194;-83
2023/09/12 09:05:52;;;;;;;23.40;22.20;;;25.60;99.90;;;;;;5036057;28;20891;-84
2023/09/12 09:08:24;;;;;;;23.03;21.93;;;25.60;99.90;;;;;;5035686;28;20492;-85
2023/09/12 09:10:56;;;;;;;22.67;21.40;;;25.70;99.90;;;;;;5030859;28;20535;-83
2023/09/12 09:13:25;;;;;;;23.80;22.40;;;25.70;99.90;;;;;;5036293;28;20503;-82
2023/09/12 09:16:12;;;;;;;22.90;21.70;;;25.80;99.90;;;;;;5036407;28;20543;-84
2023/09/12 09:18:54;;;;;;;22.83;21.60;;;25.80;99.90;;;;;;5034667;28;20469;-85
2023/09/12 09:21:24;;;;;;;21.63;20.60;;;25.70;99.90;;;;;;5035725;28;20550;-87
2023/09/12 09:23:55;;;;;;;22.63;21.43;;;25.60;99.90;;;;;;5037566;28;20619;-85
2023/09/12 09:26:23;;;;;;;22.60;21.40;;;25.70;99.90;;;;;;5027020;28;20492;-85
2023/09/12 09:29:14;;;;;;;22.30;21.30;;;25.70;99.90;;;;;;5034708;28;20483;-85
2023/09/12 09:31:43;;;;;;;23.03;21.73;;;25.80;99.90;;;;;;5025795;28;20471;-85
2023/09/12 09:34:13;;;;;;;22.83;21.60;;;25.80;99.90;;;;;;5032050;28;20445;-85
2023/09/12 09:36:45;;;;;;;21.83;20.63;;;25.80;99.90;;;;;;5034120;28;20487;-84
2023/09/12 09:39:16;;;;;;;22.27;20.80;;;25.80;99.90;;;;;;5012620;28;20461;-85
2023/09/12 09:41:48;;;;;;;22.67;21.60;;;25.80;99.90;;;;;;5032262;28;20468;-86
2023/09/12 09:44:17;;;;;;;22.67;21.57;;;26.00;99.90;;;;;;5031413;28;20453;-85
2023/09/12 09:46:46;;;;;;;21.93;20.83;;;25.90;99.90;;;;;;5019917;28;20452;-83
2023/09/12 09:49:15;;;;;;;22.47;21.27;;;25.90;99.90;;;;;;5033558;28;20452;-83
2023/09/12 09:51:44;;;;;;;22.70;21.40;;;26.00;99.90;;;;;;5037689;28;20463;-85
2023/09/12 09:54:14;;;;;;;22.00;20.90;;;26.00;99.90;;;;;;5032576;28;20452;-85
2023/09/12 09:56:50;;;;;;;22.17;21.10;;;26.10;99.90;;;;;;5029927;28;20468;-84
2023/09/12 09:59:20;;;;;;;22.40;21.20;;;26.20;99.90;;;;;;5031361;28;20985;-85
2023/09/12 10:01:50;;;;;;;22.13;21.03;;;26.30;99.90;;;;;;5034790;28;20581;-84
2023/09/12 10:04:19;;;;;;;23.30;22.20;;;26.30;99.90;;;;;;5030992;28;20457;-85
2023/09/12 10:06:48;;;;;;;21.77;20.73;;;26.20;99.90;;;;;;5037921;28;20452;-84
2023/09/12 10:09:19;;;;;;;22.00;20.80;;;26.30;99.90;;;;;;5034710;28;20453;-84
2023/09/12 10:11:49;;;;;;;22.50;21.40;;;26.50;99.90;;;;;;5033791;28;20821;-84
2023/09/12 10:14:19;;;;;;;23.37;21.90;;;26.40;99.90;;;;;;5027046;28;20590;-84
2023/09/12 10:16:51;;;;;;;22.77;21.67;;;26.40;99.90;;;;;;5033506;28;20540;-82
2023/09/12 10:19:23;;;;;;;23.60;22.13;;;26.40;99.90;;;;;;5016736;28;20970;-84
2023/09/12 10:22:00;;;;;;;23.07;21.67;;;26.40;99.90;;;;;;5031319;28;20471;-84
2023/09/12 10:24:31;;;;;;;23.50;22.13;;;26.50;99.90;;;;;;5028382;28;20467;-84
2023/09/12 10:27:00;;;;;;;23.87;22.33;;;26.50;99.90;;;;;;5033168;28;20544;-85
2023/09/12 10:29:29;;;;;;;27.53;25.47;;;26.50;99.90;;;;;;5035631;28;20465;-83
2023/09/12 10:31:58;;;;;;;25.43;23.80;;;26.50;99.90;;;;;;5035831;28;20553;-84
2023/09/12 10:34:26;;;;;;;23.77;22.43;;;26.60;99.90;;;;;;5016321;28;20797;-83
2023/09/12 10:36:58;;;;;;;23.37;21.87;;;26.60;99.90;;;;;;5032208;28;21265;-82
2023/09/12 10:39:30;;;;;;;26.27;24.77;;;26.60;99.90;;;;;;5029863;28;20458;-81
2023/09/12 10:42:00;;;;;;;23.23;22.03;;;26.60;99.90;;;;;;5039255;28;20495;-84
2023/09/12 10:44:29;;;;;;;26.73;25.13;;;26.70;99.90;;;;;;5034289;28;20449;-84
2023/09/12 10:46:59;;;;;;;25.53;23.83;;;26.70;99.90;;;;;;5039707;28;20469;-86
2023/09/12 10:49:28;;;;;;;23.30;22.00;;;26.70;99.90;;;;;;5028788;28;20446;-84
2023/09/12 10:51:58;;;;;;;22.40;20.97;;;26.70;99.90;;;;;;5033512;28;20872;-84
2023/09/12 10:54:36;;;;;;;25.80;24.40;;;26.80;99.90;;;;;;5034903;28;20441;-85
2023/09/12 10:57:07;;;;;;;24.47;22.87;;;26.80;99.90;;;;;;5034558;28;21114;-83
2023/09/12 10:59:36;;;;;;;20.40;19.40;;;26.80;99.90;;;;;;5040740;28;20460;-85
2023/09/12 11:02:29;;;;;;;20.20;19.30;;;26.80;99.90;;;;;;5035204;28;21060;-85
2023/09/12 11:04:58;;;;;;;20.33;19.40;;;26.90;99.90;;;;;;5026242;28;20464;-79
2023/09/12 11:07:50;;;;;;;19.97;19.07;;;27.10;99.90;;;;;;5035613;28;20494;-83
2023/09/12 11:14:18;;;;;;;19.67;18.70;;;27.20;99.90;;;;;;5034125;28;20441;-81
2023/09/12 11:17:21;;;;;;;19.80;18.87;;;27.40;99.90;;;;;;5036534;28;20538;-84
2023/09/12 11:19:53;;;;;;;20.10;19.30;;;27.40;99.90;;;;;;5039409;28;20978;-86
2023/09/12 11:23:14;;;;;;;20.73;19.60;;;27.50;99.90;;;;;;5037884;28;20474;-84
2023/09/12 11:26:32;;;;;;;20.67;19.67;;;27.50;99.90;;;;;;5038574;28;20580;-82
2023/09/12 11:29:35;;;;;;;20.70;19.60;;;27.50;99.90;;;;;;5016739;23;20491;-83
2023/09/12 11:33:12;;;;;;;20.80;19.60;;;27.60;99.90;;;;;;4997690;28;20538;-83
2023/09/12 11:36:55;;;;;;;20.30;19.30;;;27.80;99.90;;;;;;4906269;29;20473;-81
2023/09/12 11:39:25;;;;;;;20.77;19.67;;;27.70;99.90;;;;;;4980735;28;20530;-84
2023/09/12 11:41:54;;;;;;;20.80;19.80;;;27.70;99.90;;;;;;4983884;28;20550;-83
2023/09/12 11:44:30;;;;;;;21.13;20.00;;;27.80;99.90;;;;;;4982137;28;20445;-84
2023/09/12 11:47:06;;;;;;;21.80;20.37;;;28.00;99.90;;;;;;4986183;28;21204;-81
2023/09/12 11:52:47;;;;;;;20.00;18.83;;;28.10;99.90;;;;;;4985191;28;20456;-85
2023/09/12 11:55:30;;;;;;;20.13;19.20;;;28.10;99.90;;;;;;5003239;28;20572;-84
2023/09/12 11:58:05;;;;;;;19.80;18.90;;;28.00;99.90;;;;;;5002180;28;20489;-81
2023/09/12 12:01:00;;;;;;;18.97;17.97;;;28.10;99.90;;;;;;4999418;28;20538;-82
2023/09/12 12:03:53;;;;;;;18.80;17.70;;;28.10;99.90;;;;;;4998756;28;20480;-83
2023/09/12 12:06:24;;;;;;;18.87;18.07;;;28.10;99.90;;;;;;5005362;28;20831;-82
2023/09/12 12:08:56;;;;;;;19.67;18.40;;;28.10;99.90;;;;;;5065038;23;20505;-83
2023/09/12 12:11:28;;;;;;;19.27;18.43;;;28.10;99.90;;;;;;5041272;28;20447;-84
2023/09/12 12:13:56;;;;;;;19.13;18.33;;;28.10;99.90;;;;;;5040417;28;20463;-83
2023/09/12 12:16:26;;;;;;;19.90;18.80;;;28.10;99.90;;;;;;5021994;28;20501;-83
2023/09/12 12:18:57;;;;;;;18.60;17.80;;;28.20;99.90;;;;;;5040962;28;20477;-83
2023/09/12 12:21:52;;;;;;;18.73;17.70;;;28.30;99.90;;;;;;5030511;28;20469;-85
2023/09/12 12:24:58;;;;;;;17.90;17.20;;;28.30;99.90;;;;;;5040500;28;20532;-84
2023/09/12 12:28:10;;;;;;;19.63;18.63;;;28.30;99.90;;;;;;5012477;28;21363;-84
2023/09/12 12:30:41;;;;;;;18.63;17.83;;;28.40;99.90;;;;;;5039722;28;20462;-82
2023/09/12 12:37:50;;;;;;;18.70;17.87;;;28.60;99.90;;;;;;5332107;23;20503;31
2023/09/12 12:40:40;;;;;;;19.40;18.43;;;28.60;99.90;;;;;;4985293;28;20556;-82
2023/09/12 12:43:20;;;;;;;18.63;17.77;;;28.60;99.90;;;;;;4983225;28;20481;-84
2023/09/12 12:46:13;;;;;;;19.37;18.47;;;28.60;99.90;;;;;;4991332;28;20466;-82
2023/09/12 12:48:45;;;;;;;18.50;17.60;;;28.70;99.90;;;;;;5005212;28;20487;-82
2023/09/12 12:51:16;;;;;;;19.47;18.47;;;28.80;99.90;;;;;;4999158;28;20464;-81
2023/09/12 12:53:46;;;;;;;20.30;19.30;;;28.80;99.90;;;;;;4985113;28;20488;-82
2023/09/12 12:56:23;;;;;;;20.03;19.03;;;28.80;99.90;;;;;;5006021;28;20456;-80
2023/09/12 12:58:55;;;;;;;19.23;18.20;;;28.80;99.90;;;;;;5009962;28;21088;-81
2023/09/12 13:01:23;;;;;;;18.83;17.73;;;28.60;99.90;;;;;;4998796;28;20460;-79
2023/09/12 13:03:54;;;;;;;19.13;18.13;;;28.60;99.90;;;;;;5006967;28;20489;-80